Time;durP1;ratioP1;P1;durP2;ratioP2;P2;SDS_P1;SDS_P2;PMS_P1;PMS_P2;Temp;Humidity;BMP_temperature;BMP_pressure;BME280_temperature;BME280_humidity;BME280_pressure;Samples;Min_cycle;Max_cycle;Signal;HPM_P1;HPM_P2
2024/02/18 00:00:44;;;;;;;17.48;4.88;;;11.70;94.80;;;;;;4163937;28;20137;-58
2024/02/18 00:02:47;;;;;;;13.70;4.00;;;11.70;94.80;;;;;;4163293;28;20052;-58
2024/02/18 00:04:50;;;;;;;19.00;4.30;;;11.70;94.60;;;;;;4163747;28;20481;-57
2024/02/18 00:06:52;;;;;;;14.55;4.07;;;11.70;94.40;;;;;;4163636;28;20712;-57
2024/02/18 00:08:55;;;;;;;16.27;4.40;;;11.80;94.70;;;;;;4164139;28;20516;-58
2024/02/18 00:10:57;;;;;;;13.50;4.15;;;11.80;94.80;;;;;;4164069;28;20056;-58
2024/02/18 00:12:59;;;;;;;15.25;4.18;;;11.90;94.40;;;;;;4146342;28;20053;-62
2024/02/18 00:15:01;;;;;;;18.63;5.05;;;11.90;94.30;;;;;;4163931;28;20555;-59
2024/02/18 00:17:03;;;;;;;10.80;4.75;;;11.80;94.70;;;;;;4163965;28;20141;-60
2024/02/18 00:19:09;;;;;;;17.90;4.43;;;11.80;94.30;;;;;;4163937;28;20050;-58
2024/02/18 00:21:16;;;;;;;14.88;4.70;;;11.80;94.70;;;;;;4163815;28;20080;-58
2024/02/18 00:23:18;;;;;;;13.60;4.30;;;11.70;94.50;;;;;;4163723;28;20463;-58
2024/02/18 00:25:20;;;;;;;19.80;5.05;;;11.70;94.50;;;;;;4163778;28;20124;-58
2024/02/18 00:27:22;;;;;;;13.70;4.60;;;11.60;94.60;;;;;;4145906;28;20262;-58
2024/02/18 00:29:25;;;;;;;12.73;4.75;;;11.60;94.60;;;;;;4164007;28;20049;-57
2024/02/18 00:31:27;;;;;;;18.08;4.88;;;11.60;94.60;;;;;;4163900;28;20045;-58
2024/02/18 00:33:29;;;;;;;14.32;4.57;;;11.60;94.20;;;;;;4162973;28;20057;-58
2024/02/18 00:35:33;;;;;;;17.02;4.00;;;11.50;94.40;;;;;;4163848;28;20048;-58
2024/02/18 00:37:35;;;;;;;14.85;4.97;;;11.60;94.50;;;;;;4145895;28;20042;-58
2024/02/18 00:39:37;;;;;;;13.95;4.47;;;11.50;94.20;;;;;;4164358;28;20095;-59
2024/02/18 00:41:39;;;;;;;13.15;4.25;;;11.60;94.60;;;;;;4164367;28;20049;-58
2024/02/18 00:43:41;;;;;;;15.65;5.43;;;11.60;94.40;;;;;;4146749;28;20050;-58
2024/02/18 00:45:44;;;;;;;13.70;4.60;;;11.50;94.60;;;;;;4164378;28;20061;-58
2024/02/18 00:47:46;;;;;;;15.13;4.25;;;11.50;94.60;;;;;;4163136;28;20485;-58
2024/02/18 00:49:49;;;;;;;16.67;4.65;;;11.50;94.60;;;;;;4163277;28;20049;-58
2024/02/18 00:51:53;;;;;;;12.10;4.53;;;11.60;94.70;;;;;;4145944;28;20046;-60
2024/02/18 00:53:56;;;;;;;20.08;4.35;;;11.50;94.70;;;;;;4163792;28;20558;-58
2024/02/18 00:55:58;;;;;;;12.70;4.20;;;11.50;94.60;;;;;;4163556;28;20092;-58
2024/02/18 00:58:00;;;;;;;15.00;4.72;;;11.50;94.50;;;;;;4163784;28;20045;-58
2024/02/18 01:00:05;;;;;;;10.40;3.72;;;11.50;94.50;;;;;;4163535;28;20063;-58
2024/02/18 01:02:07;;;;;;;12.52;3.88;;;11.50;94.60;;;;;;4164180;28;20049;-58
2024/02/18 01:04:10;;;;;;;13.13;4.45;;;11.50;95.10;;;;;;4146035;28;20079;-59
2024/02/18 01:06:12;;;;;;;17.70;4.70;;;11.50;94.70;;;;;;4163503;28;20046;-58
2024/02/18 01:08:16;;;;;;;13.18;4.78;;;11.50;94.60;;;;;;4163296;28;20125;-58
2024/02/18 01:10:18;;;;;;;14.18;4.60;;;11.50;94.50;;;;;;4163436;28;20084;-58
2024/02/18 01:12:20;;;;;;;10.80;4.45;;;11.40;94.60;;;;;;4163717;28;20046;-60
2024/02/18 01:14:22;;;;;;;13.82;4.50;;;11.40;94.60;;;;;;4165634;28;20095;-58
2024/02/18 01:16:27;;;;;;;11.70;3.83;;;11.40;94.40;;;;;;4165955;28;20052;-57
2024/02/18 01:18:29;;;;;;;12.40;4.63;;;11.40;94.80;;;;;;4166399;28;20089;-58
2024/02/18 01:20:31;;;;;;;11.85;4.15;;;11.40;94.70;;;;;;4166208;28;20072;-58
2024/02/18 01:22:33;;;;;;;10.43;3.92;;;11.40;94.90;;;;;;4166599;28;20038;-60
2024/02/18 01:24:38;;;;;;;11.50;4.40;;;11.40;94.70;;;;;;4168230;28;20045;-61
2024/02/18 01:26:40;;;;;;;13.57;4.43;;;11.30;94.80;;;;;;4168436;28;20051;-66
2024/02/18 01:28:45;;;;;;;18.13;4.82;;;11.30;95.00;;;;;;4167041;28;20049;-62
2024/02/18 01:30:47;;;;;;;16.70;4.60;;;11.30;94.90;;;;;;4165960;28;20048;-58
2024/02/18 01:32:49;;;;;;;15.15;4.45;;;11.30;94.70;;;;;;4166095;28;20151;-59
2024/02/18 01:34:54;;;;;;;13.13;4.47;;;11.30;94.90;;;;;;4166369;28;20041;-58
2024/02/18 01:36:57;;;;;;;13.93;4.43;;;11.20;94.80;;;;;;4166001;28;20049;-62
2024/02/18 01:39:00;;;;;;;15.48;4.90;;;11.20;94.90;;;;;;4168943;28;20041;-61
2024/02/18 01:41:03;;;;;;;17.10;4.55;;;11.30;94.90;;;;;;4168346;28;20128;-58
2024/02/18 01:43:05;;;;;;;14.70;4.13;;;11.30;94.90;;;;;;4166706;28;20049;-59
2024/02/18 01:45:11;;;;;;;18.27;5.43;;;11.30;94.80;;;;;;4166511;28;20134;-60
2024/02/18 01:47:13;;;;;;;12.38;4.05;;;11.30;94.60;;;;;;4167679;28;20394;-59
2024/02/18 01:49:15;;;;;;;10.18;3.60;;;11.40;94.70;;;;;;4149018;28;20125;-58
2024/02/18 01:51:19;;;;;;;12.88;4.40;;;11.30;95.10;;;;;;4166114;28;20555;-59
2024/02/18 01:53:22;;;;;;;13.70;4.63;;;11.40;95.10;;;;;;4166157;28;20049;-62
2024/02/18 01:55:25;;;;;;;16.45;4.25;;;11.30;94.60;;;;;;4165878;28;20045;-58
2024/02/18 01:57:29;;;;;;;11.63;4.35;;;11.40;95.00;;;;;;4165930;28;20045;-57
2024/02/18 01:59:31;;;;;;;12.52;4.50;;;11.40;94.70;;;;;;4165486;28;20049;-59
2024/02/18 02:01:34;;;;;;;15.70;4.28;;;11.30;95.20;;;;;;4165876;28;20048;-63
2024/02/18 02:03:38;;;;;;;17.02;4.55;;;11.30;95.20;;;;;;4165573;28;20476;-58
2024/02/18 02:05:41;;;;;;;13.95;5.07;;;11.40;95.10;;;;;;4166013;28;20099;-59
2024/02/18 02:07:45;;;;;;;14.40;4.18;;;11.30;94.90;;;;;;4166061;28;20095;-62
2024/02/18 02:09:47;;;;;;;15.30;3.70;;;11.30;95.30;;;;;;4148447;28;20235;-58
2024/02/18 02:11:49;;;;;;;11.00;4.10;;;11.20;95.00;;;;;;4166127;28;20050;-59
2024/02/18 02:13:53;;;;;;;12.00;3.83;;;11.30;94.90;;;;;;4165836;28;20045;-58
2024/02/18 02:15:55;;;;;;;14.07;4.60;;;11.30;94.90;;;;;;4165814;28;20116;-59
2024/02/18 02:17:57;;;;;;;14.25;4.03;;;11.30;95.00;;;;;;4165710;28;20412;-59
2024/02/18 02:19:59;;;;;;;14.05;4.40;;;11.30;95.00;;;;;;4166057;28;20053;-58
2024/02/18 02:22:02;;;;;;;9.45;4.10;;;11.20;95.00;;;;;;4148416;28;20072;-59
2024/02/18 02:24:04;;;;;;;12.55;4.18;;;11.30;95.20;;;;;;4165754;28;20068;-58
2024/02/18 02:26:11;;;;;;;13.23;4.00;;;11.30;95.00;;;;;;4164705;28;20060;-58
2024/02/18 02:28:18;;;;;;;10.98;3.80;;;11.20;95.30;;;;;;4165335;28;20057;-59
2024/02/18 02:30:22;;;;;;;11.93;4.05;;;11.20;95.10;;;;;;4166244;28;20049;-59
2024/02/18 02:32:26;;;;;;;9.63;3.58;;;11.00;95.50;;;;;;4165064;28;20061;-59
2024/02/18 02:34:28;;;;;;;13.20;4.38;;;11.10;95.20;;;;;;4165325;28;20046;-58
2024/02/18 02:36:30;;;;;;;11.25;4.18;;;11.10;95.10;;;;;;4147618;28;20484;-61
2024/02/18 02:38:35;;;;;;;10.68;4.57;;;11.10;95.30;;;;;;4166607;28;20045;-58
2024/02/18 02:40:37;;;;;;;;;;;11.10;95.20;;;;;;4167170;28;20149;-58
2024/02/18 02:42:40;;;;;;;12.57;3.92;;;11.10;95.30;;;;;;4166149;28;19924;-59
2024/02/18 02:44:42;;;;;;;10.60;4.13;;;11.10;95.60;;;;;;4165747;28;20468;-58
2024/02/18 02:46:46;;;;;;;10.40;4.18;;;11.10;95.20;;;;;;4165478;28;20408;-58
2024/02/18 02:48:48;;;;;;;14.05;3.75;;;11.10;95.10;;;;;;4165134;28;20484;-59
2024/02/18 02:50:50;;;;;;;12.00;3.78;;;11.00;95.10;;;;;;4165801;28;20046;-58
2024/02/18 02:52:53;;;;;;;11.43;3.97;;;11.00;95.20;;;;;;4165606;28;20459;-59
2024/02/18 02:54:56;;;;;;;16.15;4.00;;;11.00;95.60;;;;;;4164797;28;20077;-58
2024/02/18 02:56:59;;;;;;;16.67;4.33;;;10.90;95.20;;;;;;4164591;28;20117;-58
2024/02/18 02:59:01;;;;;;;16.63;4.10;;;10.90;95.30;;;;;;4165659;28;20443;-59
2024/02/18 03:01:03;;;;;;;17.52;4.45;;;11.00;96.20;;;;;;4165493;28;20069;-59
2024/02/18 03:03:07;;;;;;;15.23;4.75;;;11.10;95.50;;;;;;4165377;28;20049;-59
2024/02/18 03:05:09;;;;;;;10.95;4.07;;;11.10;95.10;;;;;;4165643;28;20050;-57
2024/02/18 03:07:12;;;;;;;15.60;4.53;;;11.10;95.40;;;;;;4165488;28;20423;-63
2024/02/18 03:09:14;;;;;;;10.52;3.58;;;11.00;95.40;;;;;;4165308;28;20049;-58
2024/02/18 03:11:16;;;;;;;10.85;4.10;;;11.00;95.30;;;;;;4165577;28;20129;-62
2024/02/18 03:13:19;;;;;;;15.75;4.53;;;11.00;95.80;;;;;;4166032;28;20088;-59
2024/02/18 03:15:22;;;;;;;15.32;4.47;;;11.00;95.40;;;;;;4165649;28;20049;-59
2024/02/18 03:17:25;;;;;;;10.00;4.22;;;11.00;95.50;;;;;;4165123;28;20045;-59
2024/02/18 03:19:28;;;;;;;15.35;4.63;;;11.00;95.90;;;;;;4165353;28;20477;-58
2024/02/18 03:21:30;;;;;;;13.18;4.25;;;10.90;95.40;;;;;;4165112;28;20540;-59
2024/02/18 03:23:33;;;;;;;13.40;3.78;;;10.80;95.90;;;;;;4165195;28;20490;-59
2024/02/18 03:25:35;;;;;;;14.52;4.50;;;10.90;95.80;;;;;;4147320;28;20057;-58
2024/02/18 03:27:38;;;;;;;13.18;3.67;;;10.90;95.70;;;;;;4163904;28;20056;-59
2024/02/18 03:29:40;;;;;;;13.25;4.28;;;11.00;95.70;;;;;;4164400;28;20060;-59
2024/02/18 03:31:42;;;;;;;16.40;3.65;;;11.00;95.80;;;;;;4164384;28;20120;-58
2024/02/18 03:33:44;;;;;;;13.98;4.07;;;10.90;95.40;;;;;;4163993;28;20481;-58
2024/02/18 03:35:48;;;;;;;15.10;4.30;;;10.90;95.90;;;;;;4164925;28;20458;-59
2024/02/18 03:37:50;;;;;;;14.68;4.68;;;10.90;95.60;;;;;;4164713;28;20045;-59
2024/02/18 03:39:52;;;;;;;13.27;4.22;;;10.90;95.60;;;;;;4164360;28;20052;-58
2024/02/18 03:41:54;;;;;;;8.98;3.63;;;10.80;95.90;;;;;;4164155;28;20046;-59
2024/02/18 03:43:56;;;;;;;12.48;4.10;;;10.80;95.80;;;;;;4147044;28;20506;-59
2024/02/18 03:45:58;;;;;;;9.35;3.78;;;10.90;95.90;;;;;;4163845;28;20052;-58
2024/02/18 03:48:01;;;;;;;13.50;3.92;;;10.80;95.90;;;;;;4164103;28;20053;-58
2024/02/18 03:50:03;;;;;;;11.05;3.35;;;10.80;95.60;;;;;;4164073;28;20121;-59
2024/02/18 03:52:07;;;;;;;12.10;4.43;;;10.70;95.90;;;;;;4164000;28;20052;-59
2024/02/18 03:54:10;;;;;;;12.18;4.25;;;10.70;95.90;;;;;;4146498;28;20057;-58
2024/02/18 03:56:13;;;;;;;11.70;3.75;;;10.80;96.00;;;;;;4163556;28;20488;-58
2024/02/18 03:58:15;;;;;;;10.98;3.60;;;10.90;95.80;;;;;;4164825;28;20041;-64
2024/02/18 04:00:17;;;;;;;12.52;3.80;;;10.80;95.50;;;;;;4148420;28;20056;-58
2024/02/18 04:02:20;;;;;;;21.63;4.45;;;10.70;95.90;;;;;;4148355;28;20046;-59
2024/02/18 04:04:22;;;;;;;13.32;3.80;;;10.70;95.70;;;;;;4164174;28;20092;-59
2024/02/18 04:06:24;;;;;;;9.73;3.83;;;10.70;95.90;;;;;;4163895;28;20049;-58
2024/02/18 04:08:28;;;;;;;13.30;4.20;;;10.80;96.00;;;;;;4164100;28;20049;-58
2024/02/18 04:10:32;;;;;;;13.02;3.95;;;10.80;95.90;;;;;;4146077;28;20041;-59
2024/02/18 04:12:34;;;;;;;14.73;3.90;;;10.90;95.80;;;;;;4146756;28;20042;-59
2024/02/18 04:14:37;;;;;;;13.27;3.55;;;10.90;95.90;;;;;;4164167;28;20087;-58
2024/02/18 04:16:39;;;;;;;10.32;3.42;;;10.70;95.70;;;;;;4163925;28;20099;-57
2024/02/18 04:18:43;;;;;;;10.35;3.58;;;10.70;95.80;;;;;;4163965;28;20056;-58
2024/02/18 04:20:46;;;;;;;13.88;3.95;;;10.80;96.00;;;;;;4164849;28;20052;-59
2024/02/18 04:22:48;;;;;;;11.70;3.45;;;10.80;95.90;;;;;;4146979;28;20045;-58
2024/02/18 04:24:51;;;;;;;9.60;3.67;;;10.90;95.60;;;;;;4164798;28;20052;-58
2024/02/18 04:26:54;;;;;;;12.07;3.47;;;10.90;95.50;;;;;;4166196;28;20064;-65
2024/02/18 04:28:56;;;;;;;10.93;3.53;;;10.90;95.70;;;;;;4166302;28;20049;-65
2024/02/18 04:30:58;;;;;;;13.95;3.88;;;10.90;95.60;;;;;;4165521;28;20049;-60
2024/02/18 04:33:04;;;;;;;11.50;3.78;;;10.90;95.40;;;;;;4163606;28;20061;-58
2024/02/18 04:35:06;;;;;;;11.00;3.88;;;10.90;95.80;;;;;;4163715;28;20049;-59
2024/02/18 04:37:09;;;;;;;12.18;3.72;;;10.90;95.70;;;;;;4163605;28;20095;-59
2024/02/18 04:39:11;;;;;;;9.85;4.00;;;10.90;96.10;;;;;;4163190;28;20484;-59
2024/02/18 04:41:15;;;;;;;13.52;4.25;;;10.90;95.80;;;;;;4146560;28;20088;-57
2024/02/18 04:43:19;;;;;;;9.05;3.78;;;10.90;95.90;;;;;;4164830;28;20073;-61
2024/02/18 04:45:26;;;;;;;13.70;3.15;;;10.80;95.60;;;;;;4163883;28;20081;-59
2024/02/18 04:47:32;;;;;;;11.57;3.75;;;10.80;95.90;;;;;;4163910;28;20077;-58
2024/02/18 04:49:34;;;;;;;13.52;3.80;;;10.80;95.80;;;;;;4166973;28;20049;-59
2024/02/18 04:51:39;;;;;;;;;;;10.80;95.90;;;;;;4168840;28;20502;-59
2024/02/18 04:53:41;;;;;;;13.23;3.75;;;10.80;95.90;;;;;;4167014;28;19924;-59
2024/02/18 04:55:43;;;;;;;13.88;4.00;;;10.90;95.70;;;;;;4167280;28;20449;-60
2024/02/18 04:57:47;;;;;;;8.25;3.60;;;10.70;95.50;;;;;;4167221;28;20370;-59
2024/02/18 04:59:49;;;;;;;15.07;3.95;;;10.80;96.00;;;;;;4167028;28;20481;-59
2024/02/18 05:01:53;;;;;;;12.55;3.33;;;10.80;95.90;;;;;;4166684;28;20045;-59
2024/02/18 05:03:55;;;;;;;12.30;3.80;;;10.80;95.70;;;;;;4166970;28;20042;-59
2024/02/18 05:05:58;;;;;;;10.75;4.25;;;10.90;95.90;;;;;;4150180;28;20042;-59
2024/02/18 05:08:00;;;;;;;15.20;3.67;;;10.90;95.90;;;;;;4166324;28;20124;-58
2024/02/18 05:10:03;;;;;;;9.95;3.35;;;10.80;95.80;;;;;;4166661;28;20049;-59
2024/02/18 05:12:08;;;;;;;9.88;3.03;;;10.90;95.90;;;;;;4166887;28;20125;-58
2024/02/18 05:14:13;;;;;;;12.90;3.67;;;10.80;95.90;;;;;;4166100;28;20083;-58
2024/02/18 05:16:18;;;;;;;10.55;4.28;;;10.90;96.00;;;;;;4166534;28;20519;-58
2024/02/18 05:18:21;;;;;;;14.18;3.67;;;10.90;95.90;;;;;;4166336;28;20716;-58
2024/02/18 05:20:24;;;;;;;9.57;3.88;;;10.90;95.80;;;;;;4166357;28;20045;-60
2024/02/18 05:22:26;;;;;;;8.65;3.53;;;10.90;95.80;;;;;;4166350;28;20488;-59
2024/02/18 05:24:32;;;;;;;13.18;3.38;;;10.90;96.20;;;;;;4149077;28;20387;-59
2024/02/18 05:26:34;;;;;;;10.63;3.60;;;10.90;96.10;;;;;;4166588;28;20558;-58
2024/02/18 05:28:36;;;;;;;8.88;3.50;;;10.90;96.00;;;;;;4166829;28;20049;-58
2024/02/18 05:30:40;;;;;;;13.57;4.00;;;10.80;96.10;;;;;;4148581;28;20049;-58
2024/02/18 05:32:57;;;;;;;16.15;4.18;;;10.70;96.10;;;;;;4166157;28;20061;-57
2024/02/18 05:34:59;;;;;;;13.05;4.38;;;10.80;96.10;;;;;;4166047;28;20046;-58
2024/02/18 05:37:03;;;;;;;9.60;3.40;;;10.70;96.00;;;;;;4165791;28;20049;-59
2024/02/18 05:39:11;;;;;;;12.52;3.47;;;10.70;96.20;;;;;;4166455;28;20079;-58
2024/02/18 05:41:13;;;;;;;9.35;3.75;;;10.80;96.00;;;;;;4166176;28;20041;-58
2024/02/18 05:43:16;;;;;;;11.70;3.55;;;10.80;96.10;;;;;;4168868;28;20052;-59
2024/02/18 05:45:21;;;;;;;9.88;3.88;;;10.80;96.10;;;;;;4167683;28;20489;-59
2024/02/18 05:47:24;;;;;;;12.65;3.92;;;10.80;96.20;;;;;;4166908;28;20416;-57
2024/02/18 05:49:26;;;;;;;9.90;3.28;;;10.80;96.20;;;;;;4167508;28;20393;-59
2024/02/18 05:51:31;;;;;;;12.63;3.75;;;10.80;96.00;;;;;;4166501;28;20405;-59
2024/02/18 05:53:34;;;;;;;10.45;3.00;;;10.90;96.20;;;;;;4165991;28;20149;-58
2024/02/18 05:55:36;;;;;;;11.13;4.05;;;10.90;96.40;;;;;;4166129;28;20476;-59
2024/02/18 05:57:38;;;;;;;13.73;4.30;;;10.90;96.40;;;;;;4166025;28;20407;-58
2024/02/18 05:59:40;;;;;;;9.57;2.95;;;10.80;96.10;;;;;;4165006;28;20098;-58
2024/02/18 06:01:42;;;;;;;13.25;3.45;;;10.80;96.20;;;;;;4165566;28;20045;-58
2024/02/18 06:03:45;;;;;;;11.55;3.75;;;10.90;96.50;;;;;;4165748;28;20405;-58
2024/02/18 06:05:51;;;;;;;10.48;3.78;;;10.90;96.10;;;;;;4165419;28;20104;-58
2024/02/18 06:07:53;;;;;;;11.98;3.85;;;10.90;96.20;;;;;;4165620;28;20049;-59
2024/02/18 06:09:55;;;;;;;11.55;3.67;;;11.00;96.20;;;;;;4165497;28;20057;-59
2024/02/18 06:11:57;;;;;;;9.75;3.53;;;10.90;96.10;;;;;;4166024;28;20133;-62
2024/02/18 06:13:59;;;;;;;19.95;4.07;;;10.90;96.30;;;;;;4165527;28;20068;-58
2024/02/18 06:16:02;;;;;;;11.85;3.20;;;10.70;96.20;;;;;;4165602;28;20416;-58
2024/02/18 06:18:04;;;;;;;10.48;3.63;;;10.80;97.00;;;;;;4147621;28;20070;-58
2024/02/18 06:20:10;;;;;;;13.38;3.67;;;10.70;97.00;;;;;;4164945;28;20140;-62
2024/02/18 06:22:13;;;;;;;10.02;3.50;;;10.80;97.00;;;;;;4165676;28;20452;-59
2024/02/18 06:24:15;;;;;;;12.30;3.65;;;10.80;96.80;;;;;;4165628;28;20045;-58
2024/02/18 06:26:17;;;;;;;15.32;4.18;;;10.80;96.90;;;;;;4165482;28;20454;-58
2024/02/18 06:28:19;;;;;;;11.60;3.25;;;10.70;97.20;;;;;;4165419;28;20045;-65
2024/02/18 06:30:21;;;;;;;14.43;3.50;;;10.70;96.90;;;;;;4165426;28;20385;-57
2024/02/18 06:32:23;;;;;;;8.82;3.42;;;10.70;97.40;;;;;;4148140;28;20056;-62
2024/02/18 06:34:25;;;;;;;12.55;3.90;;;10.80;97.50;;;;;;4167186;28;20103;-60
2024/02/18 06:36:31;;;;;;;12.57;3.95;;;10.70;97.70;;;;;;4166217;28;20081;-60
2024/02/18 06:38:35;;;;;;;12.07;3.50;;;10.70;97.90;;;;;;4166101;28;20080;-59
2024/02/18 06:40:37;;;;;;;9.65;3.60;;;10.60;98.40;;;;;;4165782;28;20057;-59
2024/02/18 06:42:41;;;;;;;15.20;3.27;;;10.60;97.80;;;;;;4165545;28;20507;-59
2024/02/18 06:44:43;;;;;;;8.65;2.88;;;10.60;98.10;;;;;;4147995;28;20167;-58
2024/02/18 06:46:45;;;;;;;10.15;3.50;;;10.70;98.20;;;;;;4165385;28;20465;-59
2024/02/18 06:48:51;;;;;;;10.38;4.10;;;10.70;98.60;;;;;;4165154;28;20136;-59
2024/02/18 06:50:54;;;;;;;10.55;3.13;;;10.60;98.50;;;;;;4164893;28;20045;-58
2024/02/18 06:53:01;;;;;;;16.20;4.00;;;10.70;98.40;;;;;;4164919;28;20049;-59
2024/02/18 06:55:04;;;;;;;12.45;3.85;;;10.70;98.20;;;;;;4165347;28;20049;-59
2024/02/18 06:57:09;;;;;;;11.30;3.42;;;10.70;98.30;;;;;;4165524;28;20128;-58
2024/02/18 06:59:13;;;;;;;17.17;4.03;;;10.70;98.10;;;;;;4165017;28;20049;-59
2024/02/18 07:01:21;;;;;;;8.30;2.97;;;10.70;97.90;;;;;;4165146;28;20049;-59
2024/02/18 07:03:23;;;;;;;11.25;3.40;;;10.60;98.40;;;;;;4164859;28;20413;-58
2024/02/18 07:05:26;;;;;;;10.85;3.40;;;10.70;98.20;;;;;;4164462;28;20485;-58
2024/02/18 07:07:28;;;;;;;9.07;2.85;;;10.60;98.40;;;;;;4164838;28;20092;-63
2024/02/18 07:09:34;;;;;;;12.55;3.50;;;10.70;98.30;;;;;;4148724;28;20084;-59
2024/02/18 07:11:36;;;;;;;14.18;3.60;;;10.80;98.10;;;;;;4165479;28;20504;-58
2024/02/18 07:13:40;;;;;;;9.30;2.53;;;10.80;98.10;;;;;;4165829;28;20374;-59
2024/02/18 07:15:42;;;;;;;8.45;3.05;;;10.70;97.80;;;;;;4165413;28;20052;-59
2024/02/18 07:17:44;;;;;;;8.65;3.30;;;10.70;98.30;;;;;;4165647;28;20396;-58
2024/02/18 07:19:48;;;;;;;9.55;3.28;;;10.60;98.10;;;;;;4165178;28;20128;-58
2024/02/18 07:21:51;;;;;;;12.02;3.00;;;10.60;98.30;;;;;;4165122;28;20053;-58
2024/02/18 07:23:53;;;;;;;13.77;3.78;;;10.60;98.30;;;;;;4165274;28;20120;-62
2024/02/18 07:25:57;;;;;;;14.00;3.03;;;10.60;98.30;;;;;;4165597;28;20124;-59
2024/02/18 07:27:59;;;;;;;10.23;3.25;;;10.80;98.30;;;;;;4165372;28;20459;-58
2024/02/18 07:30:03;;;;;;;11.80;2.92;;;10.70;98.00;;;;;;4164879;28;20045;-58
2024/02/18 07:32:05;;;;;;;10.27;3.00;;;10.70;98.20;;;;;;4165090;28;20045;-58
2024/02/18 07:34:07;;;;;;;13.05;3.78;;;10.70;98.10;;;;;;4164254;28;20489;-58
2024/02/18 07:36:10;;;;;;;9.60;2.78;;;10.80;98.20;;;;;;4164515;28;20041;-58
2024/02/18 07:38:12;;;;;;;10.60;2.88;;;10.80;98.10;;;;;;4164380;28;20120;-59
2024/02/18 07:40:15;;;;;;;13.52;3.47;;;10.80;98.20;;;;;;4165108;28;20091;-59
2024/02/18 07:42:19;;;;;;;15.80;3.83;;;10.90;98.40;;;;;;4164843;28;20427;-60
2024/02/18 07:44:21;;;;;;;14.43;3.35;;;10.90;98.20;;;;;;4164425;28;20503;-58
2024/02/18 07:46:23;;;;;;;15.70;3.33;;;11.00;98.40;;;;;;4146782;28;20473;-58
2024/02/18 07:48:25;;;;;;;14.18;3.60;;;10.90;98.10;;;;;;4163950;28;20060;-58
2024/02/18 07:50:27;;;;;;;9.27;2.75;;;11.00;98.20;;;;;;4164683;28;20052;-58
2024/02/18 07:52:31;;;;;;;12.00;3.30;;;11.00;98.20;;;;;;4164346;28;20423;-58
2024/02/18 07:54:36;;;;;;;10.77;3.08;;;11.00;98.20;;;;;;4164128;28;20411;-59
2024/02/18 07:56:45;;;;;;;8.23;2.85;;;11.00;97.90;;;;;;4164222;28;20057;-59
2024/02/18 07:58:49;;;;;;;9.88;3.75;;;11.00;98.10;;;;;;4164083;28;20046;-58
2024/02/18 08:00:51;;;;;;;9.25;3.03;;;11.00;97.70;;;;;;4164447;28;20053;-59
2024/02/18 08:02:54;;;;;;;11.35;2.97;;;11.00;97.90;;;;;;4164645;28;20456;-62
2024/02/18 08:04:56;;;;;;;9.43;3.20;;;11.00;97.70;;;;;;4165566;28;20071;-61
2024/02/18 08:06:58;;;;;;;10.80;3.45;;;10.90;97.80;;;;;;4165749;28;20092;-63
2024/02/18 08:09:00;;;;;;;15.77;3.50;;;11.00;97.60;;;;;;4164382;28;20049;-59
2024/02/18 08:11:02;;;;;;;9.63;3.28;;;10.90;97.70;;;;;;4164237;28;20456;-58
2024/02/18 08:13:05;;;;;;;9.82;3.08;;;11.00;97.70;;;;;;4163978;28;20049;-60
2024/02/18 08:15:10;;;;;;;14.45;3.35;;;11.00;97.60;;;;;;4163814;28;20056;-59
2024/02/18 08:17:12;;;;;;;17.98;3.83;;;11.00;97.50;;;;;;4163540;28;20497;-57
2024/02/18 08:19:14;;;;;;;13.25;3.00;;;11.00;97.80;;;;;;4164087;28;20041;-58
2024/02/18 08:21:16;;;;;;;9.73;2.88;;;10.90;97.80;;;;;;4163890;28;20111;-59
2024/02/18 08:23:18;;;;;;;10.73;3.15;;;11.10;97.70;;;;;;4164600;28;20056;-63
2024/02/18 08:25:20;;;;;;;13.45;3.75;;;11.10;97.30;;;;;;4167719;28;20405;-58
2024/02/18 08:27:22;;;;;;;12.80;3.15;;;11.20;97.60;;;;;;4149596;28;20050;-59
2024/02/18 08:29:24;;;;;;;10.52;3.22;;;11.10;97.20;;;;;;4167017;28;20408;-58
2024/02/18 08:31:28;;;;;;;8.85;3.00;;;11.10;97.70;;;;;;4166962;28;20466;-58
2024/02/18 08:33:31;;;;;;;10.93;3.22;;;11.30;97.50;;;;;;4166997;28;20115;-58
2024/02/18 08:35:33;;;;;;;8.23;3.15;;;11.20;97.40;;;;;;4167086;28;20048;-58
2024/02/18 08:37:35;;;;;;;10.60;3.13;;;11.20;97.90;;;;;;4167393;28;20046;-59
2024/02/18 08:39:39;;;;;;;13.25;2.72;;;11.20;97.50;;;;;;4166977;28;20054;-58
2024/02/18 08:41:41;;;;;;;12.73;3.13;;;11.20;97.60;;;;;;4167242;28;20052;-65
2024/02/18 08:43:43;;;;;;;10.20;2.58;;;11.20;97.90;;;;;;4149528;28;20058;-59
2024/02/18 08:45:45;;;;;;;9.02;3.45;;;11.30;97.70;;;;;;4167278;28;20389;-63
2024/02/18 08:47:49;;;;;;;10.07;3.40;;;11.30;97.80;;;;;;4168306;28;20388;-58
2024/02/18 08:49:50;;;;;;;8.38;2.55;;;11.40;97.50;;;;;;4168967;28;20133;-58
2024/02/18 08:51:54;;;;;;;9.52;3.20;;;11.50;97.40;;;;;;4167254;28;20037;-58
2024/02/18 08:53:56;;;;;;;14.25;3.60;;;11.40;97.40;;;;;;4167318;28;20504;-59
2024/02/18 08:55:59;;;;;;;13.00;2.97;;;11.40;97.70;;;;;;4167011;28;20073;-58
2024/02/18 08:58:01;;;;;;;10.82;3.25;;;11.30;98.10;;;;;;4166849;28;20069;-59
2024/02/18 09:00:06;;;;;;;12.73;3.13;;;11.30;98.60;;;;;;4166532;28;20064;-58
2024/02/18 09:02:08;;;;;;;9.82;3.03;;;11.40;98.60;;;;;;4166961;28;20067;-58
2024/02/18 09:04:12;;;;;;;12.57;2.80;;;11.50;98.90;;;;;;4167034;28;20095;-59
2024/02/18 09:06:14;;;;;;;10.75;3.10;;;11.40;98.80;;;;;;4167110;28;20046;-61
2024/02/18 09:08:17;;;;;;;13.23;3.28;;;11.50;99.10;;;;;;4167966;28;20064;-59
2024/02/18 09:10:20;;;;;;;12.48;3.03;;;11.60;99.40;;;;;;4168068;28;20049;-58
2024/02/18 09:12:27;;;;;;;11.07;2.97;;;11.50;99.90;;;;;;4167033;28;20045;-58
2024/02/18 09:14:29;;;;;;;16.63;4.20;;;11.40;99.90;;;;;;4166109;28;20060;-58
2024/02/18 09:16:31;;;;;;;12.95;3.08;;;11.40;99.90;;;;;;4166548;28;20076;-58
2024/02/18 09:18:33;;;;;;;13.00;3.47;;;11.40;99.90;;;;;;4166408;28;20120;-58
2024/02/18 09:20:37;;;;;;;10.23;2.95;;;11.40;99.90;;;;;;4166432;28;20361;-58
2024/02/18 09:22:39;;;;;;;13.20;3.30;;;11.30;99.90;;;;;;4166253;28;20481;-58
2024/02/18 09:24:42;;;;;;;12.98;3.22;;;11.20;99.90;;;;;;4166390;28;20145;-58
2024/02/18 09:26:45;;;;;;;12.05;2.92;;;11.30;99.90;;;;;;4166501;28;20535;-58
2024/02/18 09:28:48;;;;;;;8.88;2.83;;;11.40;99.90;;;;;;4166088;28;20084;-58
2024/02/18 09:30:50;;;;;;;7.22;2.53;;;11.40;99.90;;;;;;4166620;28;20115;-58
2024/02/18 09:32:52;;;;;;;9.48;2.75;;;11.40;99.90;;;;;;4166421;28;20162;-58
2024/02/18 09:34:54;;;;;;;12.43;3.08;;;11.30;99.90;;;;;;4148435;28;20120;-57
2024/02/18 09:36:58;;;;;;;8.27;2.88;;;11.30;99.90;;;;;;4166399;28;20045;-58
2024/02/18 09:39:00;;;;;;;15.85;3.70;;;11.30;99.90;;;;;;4166038;28;20120;-57
2024/02/18 09:41:03;;;;;;;11.63;2.85;;;11.30;99.90;;;;;;4166278;28;20125;-58
2024/02/18 09:43:07;;;;;;;9.85;2.42;;;11.30;99.90;;;;;;4165635;28;20049;-59
2024/02/18 09:45:14;;;;;;;12.32;3.17;;;11.30;99.90;;;;;;4166215;28;20068;-58
2024/02/18 09:47:18;;;;;;;13.00;2.95;;;11.30;99.90;;;;;;4166365;28;20046;-58
2024/02/18 09:49:23;;;;;;;11.25;2.80;;;11.20;99.90;;;;;;4166211;28;20123;-58
2024/02/18 09:51:27;;;;;;;11.25;2.65;;;11.30;99.90;;;;;;4148550;28;20069;-58
2024/02/18 09:53:32;;;;;;;11.95;2.63;;;11.30;99.90;;;;;;4167230;28;20065;-67
2024/02/18 09:55:36;;;;;;;10.80;2.30;;;11.30;99.90;;;;;;4166661;28;20053;-58
2024/02/18 09:57:41;;;;;;;8.25;2.42;;;11.40;99.90;;;;;;4166263;28;20507;-59
2024/02/18 09:59:43;;;;;;;11.35;2.50;;;11.40;99.90;;;;;;4166853;28;20053;-67
2024/02/18 10:01:51;;;;;;;13.40;3.17;;;11.50;99.90;;;;;;4166661;28;20096;-59
2024/02/18 10:03:54;;;;;;;8.43;2.95;;;11.30;99.90;;;;;;4167312;28;20046;-58
2024/02/18 10:05:57;;;;;;;10.35;2.28;;;11.40;99.90;;;;;;4166385;28;20440;-59
2024/02/18 10:08:00;;;;;;;10.00;2.60;;;11.40;99.90;;;;;;4166234;28;20069;-63
2024/02/18 10:10:04;;;;;;;12.05;3.20;;;11.40;99.90;;;;;;4148316;28;20048;-59
2024/02/18 10:12:08;;;;;;;10.02;2.42;;;11.40;99.90;;;;;;4165356;28;20120;-58
2024/02/18 10:14:10;;;;;;;10.98;2.80;;;11.40;99.90;;;;;;4165609;28;20049;-58
2024/02/18 10:16:12;;;;;;;10.30;2.70;;;11.50;99.90;;;;;;4165933;28;20049;-60
2024/02/18 10:18:19;;;;;;;8.80;2.45;;;11.50;99.90;;;;;;4165996;28;20045;-58
2024/02/18 10:20:22;;;;;;;9.60;2.70;;;11.60;99.90;;;;;;4165412;28;20052;-59
2024/02/18 10:22:24;;;;;;;13.77;3.38;;;11.60;99.90;;;;;;4147993;28;20058;-58
2024/02/18 10:24:27;;;;;;;13.15;3.10;;;11.60;99.90;;;;;;4165412;28;20050;-59
2024/02/18 10:26:31;;;;;;;10.80;3.08;;;11.50;99.90;;;;;;4164887;28;20080;-58
2024/02/18 10:28:33;;;;;;;14.23;3.45;;;11.50;99.90;;;;;;4165321;28;20445;-59
2024/02/18 10:30:36;;;;;;;8.73;2.80;;;11.50;99.90;;;;;;4165248;28;20439;-59
2024/02/18 10:32:39;;;;;;;7.43;2.50;;;11.50;99.90;;;;;;4165427;28;20111;-58